Back to Top

Language: 

My Weather Underground Personal Weather Station Historical Data with Graphs...

Delerius Weather Station Historical Data
Daily Summary for December 4, 2017 Units:  Both    English   Metric
« Previous Day
Next Day »
Daily Weekly Monthly Yearly Custom
  High: Low: Average:
Temperature: 50.7 °F /  10.4 °C 37.2 °F /  2.9 °C 44.8 °F /  7.1 °C
Dew Point: 45.7 °F /  7.6 °C 34.8 °F /  1.6 °C 41.5 °F /  5.3 °C
Humidity: 93 % 82 % 89 %
Wind Speed: 11.0 mph /  17.7 km/h - 6.5 mph /  10.5 km/h
Wind Gust: 18.0 mph /  29 km/h - -
Wind:- - WNW
Pressure: 30.52 in /  1033.4 hPa 30.40 in /  1029.3 hPa -
Precipitation: 0.00 in /  0 mm    
Historical Graphs
 
 
Tabular Data for December 4, 2017
Time Temperature Dew Point Pressure Wind Wind Speed Wind Gust Humidity Rainfall Rate (Hourly) solar Conditions
00:00 39.6 °F /  4.2 °C 37.2 °F /  2.9 °C 30.41 in /  1029.7 hPa WNW 6.0 mph /  9.7 km/h 7.0 mph /  11.3 km/h 91 % 0.00 in /  0 mm 0 W/m2
00:05 39.4 °F /  4.1 °C 37.0 °F /  2.8 °C 30.40 in /  1029.3 hPa WNW 5.0 mph /  8 km/h 6.0 mph /  9.7 km/h 91 % 0.00 in /  0 mm 0 W/m2
00:10 39.4 °F /  4.1 °C 37.0 °F /  2.8 °C 30.40 in /  1029.3 hPa WNW 6.0 mph /  9.7 km/h 7.0 mph /  11.3 km/h 91 % 0.00 in /  0 mm 0 W/m2
00:15 39.2 °F /  4 °C 36.8 °F /  2.7 °C 30.41 in /  1029.7 hPa WNW 6.0 mph /  9.7 km/h 8.0 mph /  12.9 km/h 91 % 0.00 in /  0 mm 0 W/m2
00:20 39.0 °F /  3.9 °C 36.6 °F /  2.6 °C 30.41 in /  1029.7 hPa West 5.0 mph /  8 km/h 7.0 mph /  11.3 km/h 91 % 0.00 in /  0 mm 0 W/m2
00:21 39.0 °F /  3.9 °C 36.6 °F /  2.6 °C 30.41 in /  1029.7 hPa West 6.0 mph /  9.7 km/h 7.0 mph /  11.3 km/h 91 % 0.00 in /  0 mm 0 W/m2
00:26 39.0 °F /  3.9 °C 36.6 °F /  2.6 °C 30.41 in /  1029.7 hPa WNW 4.0 mph /  6.4 km/h 6.0 mph /  9.7 km/h 91 % 0.00 in /  0 mm 0 W/m2
00:31 38.8 °F /  3.8 °C 36.4 °F /  2.4 °C 30.41 in /  1029.7 hPa WNW 5.0 mph /  8 km/h 6.0 mph /  9.7 km/h 91 % 0.00 in /  0 mm 0 W/m2
00:36 38.7 °F /  3.7 °C 36.3 °F /  2.4 °C 30.40 in /  1029.3 hPa WNW 5.0 mph /  8 km/h 6.0 mph /  9.7 km/h 91 % 0.00 in /  0 mm 0 W/m2
00:41 38.7 °F /  3.7 °C 36.5 °F /  2.5 °C 30.40 in /  1029.3 hPa WNW 6.0 mph /  9.7 km/h 9.0 mph /  14.5 km/h 92 % 0.00 in /  0 mm 0 W/m2
00:42 38.7 °F /  3.7 °C 36.5 °F /  2.5 °C 30.40 in /  1029.3 hPa WNW 6.0 mph /  9.7 km/h 10.0 mph /  16.1 km/h 92 % 0.00 in /  0 mm 0 W/m2
00:47 38.8 °F /  3.8 °C 36.7 °F /  2.6 °C 30.40 in /  1029.3 hPa WNW 6.0 mph /  9.7 km/h 9.0 mph /  14.5 km/h 92 % 0.00 in /  0 mm 0 W/m2
00:52 39.0 °F /  3.9 °C 37.2 °F /  2.9 °C 30.40 in /  1029.3 hPa WNW 9.0 mph /  14.5 km/h 15.0 mph /  24.1 km/h 93 % 0.00 in /  0 mm 0 W/m2
00:57 39.4 °F /  4.1 °C 37.5 °F /  3.1 °C 30.40 in /  1029.3 hPa WNW 7.0 mph /  11.3 km/h 10.0 mph /  16.1 km/h 93 % 0.00 in /  0 mm 0 W/m2
01:02 39.6 °F /  4.2 °C 37.7 °F /  3.2 °C 30.40 in /  1029.3 hPa WNW 6.0 mph /  9.7 km/h 9.0 mph /  14.5 km/h 93 % 0.00 in /  0 mm 0 W/m2
01:07 39.7 °F /  4.3 °C 37.6 °F /  3.1 °C 30.40 in /  1029.3 hPa WNW 6.0 mph /  9.7 km/h 9.0 mph /  14.5 km/h 92 % 0.00 in /  0 mm 0 W/m2
01:12 39.7 °F /  4.3 °C 37.6 °F /  3.1 °C 30.41 in /  1029.7 hPa WNW 6.0 mph /  9.7 km/h 9.0 mph /  14.5 km/h 92 % 0.00 in /  0 mm 0 W/m2
01:17 39.7 °F /  4.3 °C 37.6 °F /  3.1 °C 30.41 in /  1029.7 hPa WNW 6.0 mph /  9.7 km/h 8.0 mph /  12.9 km/h 92 % 0.00 in /  0 mm 0 W/m2
01:22 39.7 °F /  4.3 °C 37.6 °F /  3.1 °C 30.41 in /  1029.7 hPa WNW 6.0 mph /  9.7 km/h 12.0 mph /  19.3 km/h 92 % 0.00 in /  0 mm 0 W/m2
01:27 39.7 °F /  4.3 °C 37.6 °F /  3.1 °C 30.41 in /  1029.7 hPa WNW 7.0 mph /  11.3 km/h 9.0 mph /  14.5 km/h 92 % 0.00 in /  0 mm 0 W/m2
01:32 39.7 °F /  4.3 °C 37.6 °F /  3.1 °C 30.41 in /  1029.7 hPa WNW 5.0 mph /  8 km/h 9.0 mph /  14.5 km/h 92 % 0.00 in /  0 mm 0 W/m2
01:37 39.6 °F /  4.2 °C 37.4 °F /  3 °C 30.41 in /  1029.7 hPa WNW 6.0 mph /  9.7 km/h 9.0 mph /  14.5 km/h 92 % 0.00 in /  0 mm 0 W/m2
01:42 39.6 °F /  4.2 °C 37.4 °F /  3 °C 30.41 in /  1029.7 hPa WNW 5.0 mph /  8 km/h 9.0 mph /  14.5 km/h 92 % 0.00 in /  0 mm 0 W/m2
01:47 39.6 °F /  4.2 °C 37.4 °F /  3 °C 30.41 in /  1029.7 hPa WNW 7.0 mph /  11.3 km/h 9.0 mph /  14.5 km/h 92 % 0.00 in /  0 mm 0 W/m2
01:52 39.6 °F /  4.2 °C 37.4 °F /  3 °C 30.41 in /  1029.7 hPa WNW 6.0 mph /  9.7 km/h 9.0 mph /  14.5 km/h 92 % 0.00 in /  0 mm 0 W/m2
01:57 39.6 °F /  4.2 °C 37.4 °F /  3 °C 30.41 in /  1029.7 hPa WNW 6.0 mph /  9.7 km/h 9.0 mph /  14.5 km/h 92 % 0.00 in /  0 mm 0 W/m2
02:02 39.4 °F /  4.1 °C 37.0 °F /  2.8 °C 30.41 in /  1029.7 hPa WNW 7.0 mph /  11.3 km/h 10.0 mph /  16.1 km/h 91 % 0.00 in /  0 mm 0 W/m2
02:07 39.4 °F /  4.1 °C 37.0 °F /  2.8 °C 30.41 in /  1029.7 hPa WNW 6.0 mph /  9.7 km/h 10.0 mph /  16.1 km/h 91 % 0.00 in /  0 mm 0 W/m2
02:12 39.4 °F /  4.1 °C 37.0 °F /  2.8 °C 30.41 in /  1029.7 hPa WNW 7.0 mph /  11.3 km/h 12.0 mph /  19.3 km/h 91 % 0.00 in /  0 mm 0 W/m2
02:17 39.4 °F /  4.1 °C 37.0 °F /  2.8 °C 30.41 in /  1029.7 hPa WNW 4.0 mph /  6.4 km/h 6.0 mph /  9.7 km/h 91 % 0.00 in /  0 mm 0 W/m2
02:22 39.2 °F /  4 °C 36.8 °F /  2.7 °C 30.41 in /  1029.7 hPa WNW 2.0 mph /  3.2 km/h 5.0 mph /  8 km/h 91 % 0.00 in /  0 mm 0 W/m2
02:27 39.0 °F /  3.9 °C 36.6 °F /  2.6 °C 30.41 in /  1029.7 hPa WNW 1.0 mph /  1.6 km/h 4.0 mph /  6.4 km/h 91 % 0.00 in /  0 mm 0 W/m2
02:32 38.8 °F /  3.8 °C 36.4 °F /  2.4 °C 30.41 in /  1029.7 hPa WNW 5.0 mph /  8 km/h 9.0 mph /  14.5 km/h 91 % 0.00 in /  0 mm 0 W/m2
02:37 38.7 °F /  3.7 °C 36.3 °F /  2.4 °C 30.41 in /  1029.7 hPa WNW 1.0 mph /  1.6 km/h 5.0 mph /  8 km/h 91 % 0.00 in /  0 mm 0 W/m2
02:42 38.5 °F /  3.6 °C 36.1 °F /  2.3 °C 30.41 in /  1029.7 hPa WNW 2.0 mph /  3.2 km/h 6.0 mph /  9.7 km/h 91 % 0.00 in /  0 mm 0 W/m2
02:47 38.3 °F /  3.5 °C 35.9 °F /  2.2 °C 30.41 in /  1029.7 hPa WNW 5.0 mph /  8 km/h 6.0 mph /  9.7 km/h 91 % 0.00 in /  0 mm 0 W/m2
02:53 38.1 °F /  3.4 °C 35.7 °F /  2.1 °C 30.41 in /  1029.7 hPa West 2.0 mph /  3.2 km/h 5.0 mph /  8 km/h 91 % 0.00 in /  0 mm 0 W/m2
02:58 37.9 °F /  3.3 °C 35.5 °F /  1.9 °C 30.41 in /  1029.7 hPa West 2.0 mph /  3.2 km/h 5.0 mph /  8 km/h 91 % 0.00 in /  0 mm 0 W/m2
03:03 37.8 °F /  3.2 °C 35.4 °F /  1.9 °C 30.41 in /  1029.7 hPa West 2.0 mph /  3.2 km/h 6.0 mph /  9.7 km/h 91 % 0.00 in /  0 mm 0 W/m2
03:08 37.6 °F /  3.1 °C 35.2 °F /  1.8 °C 30.40 in /  1029.3 hPa West 3.0 mph /  4.8 km/h 5.0 mph /  8 km/h 91 % 0.00 in /  0 mm 0 W/m2
03:13 37.6 °F /  3.1 °C 35.2 °F /  1.8 °C 30.40 in /  1029.3 hPa WNW 4.0 mph /  6.4 km/h 6.0 mph /  9.7 km/h 91 % 0.00 in /  0 mm 0 W/m2
03:18 37.6 °F /  3.1 °C 35.2 °F /  1.8 °C 30.41 in /  1029.7 hPa Calm   4.0 mph /  6.4 km/h 91 % 0.00 in /  0 mm 0 W/m2
03:20 37.4 °F /  3 °C 35.0 °F /  1.7 °C 30.40 in /  1029.3 hPa West 1.0 mph /  1.6 km/h 3.0 mph /  4.8 km/h 91 % 0.00 in /  0 mm 0 W/m2
03:24 37.2 °F /  2.9 °C 34.8 °F /  1.6 °C 30.40 in /  1029.3 hPa West 2.0 mph /  3.2 km/h 6.0 mph /  9.7 km/h 91 % 0.00 in /  0 mm 0 W/m2
03:25 37.2 °F /  2.9 °C 34.8 °F /  1.6 °C 30.40 in /  1029.3 hPa West 4.0 mph /  6.4 km/h 9.0 mph /  14.5 km/h 91 % 0.00 in /  0 mm 0 W/m2
03:30 37.6 °F /  3.1 °C 35.5 °F /  1.9 °C 30.40 in /  1029.3 hPa WNW 7.0 mph /  11.3 km/h 11.0 mph /  17.7 km/h 92 % 0.00 in /  0 mm 0 W/m2
03:31 37.6 °F /  3.1 °C 35.5 °F /  1.9 °C 30.40 in /  1029.3 hPa WNW 7.0 mph /  11.3 km/h 11.0 mph /  17.7 km/h 92 % 0.00 in /  0 mm 0 W/m2
03:36 38.1 °F /  3.4 °C 36.3 °F /  2.4 °C 30.40 in /  1029.3 hPa WNW 8.0 mph /  12.9 km/h 13.0 mph /  20.9 km/h 93 % 0.00 in /  0 mm 0 W/m2
03:40 38.7 °F /  3.7 °C 36.8 °F /  2.7 °C 30.40 in /  1029.3 hPa WNW 8.0 mph /  12.9 km/h 11.0 mph /  17.7 km/h 93 % 0.00 in /  0 mm 0 W/m2
03:45 39.0 °F /  3.9 °C 37.2 °F /  2.9 °C 30.40 in /  1029.3 hPa WNW 8.0 mph /  12.9 km/h 12.0 mph /  19.3 km/h 93 % 0.00 in /  0 mm 0 W/m2
03:50 39.4 °F /  4.1 °C 37.2 °F /  2.9 °C 30.41 in /  1029.7 hPa WNW 8.0 mph /  12.9 km/h 10.0 mph /  16.1 km/h 92 % 0.00 in /  0 mm 0 W/m2
03:55 39.7 °F /  4.3 °C 37.3 °F /  2.9 °C 30.41 in /  1029.7 hPa NW 7.0 mph /  11.3 km/h 9.0 mph /  14.5 km/h 91 % 0.00 in /  0 mm 0 W/m2
04:00 39.7 °F /  4.3 °C 37.0 °F /  2.8 °C 30.41 in /  1029.7 hPa WNW 5.0 mph /  8 km/h 8.0 mph /  12.9 km/h 90 % 0.00 in /  0 mm 0 W/m2
04:05 39.7 °F /  4.3 °C 37.0 °F /  2.8 °C 30.41 in /  1029.7 hPa NW 6.0 mph /  9.7 km/h 9.0 mph /  14.5 km/h 90 % 0.00 in /  0 mm 0 W/m2
04:10 39.7 °F /  4.3 °C 37.0 °F /  2.8 °C 30.41 in /  1029.7 hPa WNW 7.0 mph /  11.3 km/h 10.0 mph /  16.1 km/h 90 % 0.00 in /  0 mm 0 W/m2
04:15 39.7 °F /  4.3 °C 37.0 °F /  2.8 °C 30.41 in /  1029.7 hPa WNW 6.0 mph /  9.7 km/h 10.0 mph /  16.1 km/h 90 % 0.00 in /  0 mm 0 W/m2
04:20 39.9 °F /  4.4 °C 37.2 °F /  2.9 °C 30.41 in /  1029.7 hPa NW 5.0 mph /  8 km/h 8.0 mph /  12.9 km/h 90 % 0.00 in /  0 mm 0 W/m2
04:25 39.9 °F /  4.4 °C 36.9 °F /  2.7 °C 30.41 in /  1029.7 hPa WNW 5.0 mph /  8 km/h 8.0 mph /  12.9 km/h 89 % 0.00 in /  0 mm 0 W/m2
04:30 39.9 °F /  4.4 °C 36.9 °F /  2.7 °C 30.41 in /  1029.7 hPa WNW 5.0 mph /  8 km/h 7.0 mph /  11.3 km/h 89 % 0.00 in /  0 mm 0 W/m2
04:35 39.7 °F /  4.3 °C 36.8 °F /  2.7 °C 30.41 in /  1029.7 hPa Calm   1.0 mph /  1.6 km/h 89 % 0.00 in /  0 mm 0 W/m2
04:40 39.6 °F /  4.2 °C 36.3 °F /  2.4 °C 30.41 in /  1029.7 hPa WNW 3.0 mph /  4.8 km/h 5.0 mph /  8 km/h 88 % 0.00 in /  0 mm 0 W/m2
04:45 39.4 °F /  4.1 °C 36.4 °F /  2.4 °C 30.41 in /  1029.7 hPa WNW 4.0 mph /  6.4 km/h 7.0 mph /  11.3 km/h 89 % 0.00 in /  0 mm 0 W/m2
04:50 39.6 °F /  4.2 °C 36.9 °F /  2.7 °C 30.41 in /  1029.7 hPa WNW 2.0 mph /  3.2 km/h 7.0 mph /  11.3 km/h 90 % 0.00 in /  0 mm 0 W/m2
04:55 39.4 °F /  4.1 °C 36.4 °F /  2.4 °C 30.41 in /  1029.7 hPa WNW 2.0 mph /  3.2 km/h 3.0 mph /  4.8 km/h 89 % 0.00 in /  0 mm 0 W/m2
05:00 39.2 °F /  4 °C 36.2 °F /  2.3 °C 30.41 in /  1029.7 hPa WNW 2.0 mph /  3.2 km/h 4.0 mph /  6.4 km/h 89 % 0.00 in /  0 mm 0 W/m2
05:05 38.8 °F /  3.8 °C 35.9 °F /  2.2 °C 30.41 in /  1029.7 hPa WNW 3.0 mph /  4.8 km/h 5.0 mph /  8 km/h 89 % 0.00 in /  0 mm 0 W/m2
05:10 38.8 °F /  3.8 °C 35.9 °F /  2.2 °C 30.41 in /  1029.7 hPa WNW 1.0 mph /  1.6 km/h 5.0 mph /  8 km/h 89 % 0.00 in /  0 mm 0 W/m2
05:15 38.7 °F /  3.7 °C 36.0 °F /  2.2 °C 30.41 in /  1029.7 hPa WNW 2.0 mph /  3.2 km/h 5.0 mph /  8 km/h 90 % 0.00 in /  0 mm 0 W/m2
05:20 38.5 °F /  3.6 °C 35.8 °F /  2.1 °C 30.41 in /  1029.7 hPa WNW 1.0 mph /  1.6 km/h 4.0 mph /  6.4 km/h 90 % 0.00 in /  0 mm 0 W/m2
05:25 38.5 °F /  3.6 °C 35.8 °F /  2.1 °C 30.41 in /  1029.7 hPa WNW 2.0 mph /  3.2 km/h 5.0 mph /  8 km/h 90 % 0.00 in /  0 mm 0 W/m2
05:30 38.5 °F /  3.6 °C 36.1 °F /  2.3 °C 30.41 in /  1029.7 hPa WNW 4.0 mph /  6.4 km/h 7.0 mph /  11.3 km/h 91 % 0.00 in /  0 mm 0 W/m2
05:35 38.8 °F /  3.8 °C 36.7 °F /  2.6 °C 30.41 in /  1029.7 hPa WNW 5.0 mph /  8 km/h 8.0 mph /  12.9 km/h 92 % 0.00 in /  0 mm 0 W/m2
05:40 39.4 °F /  4.1 °C 37.5 °F /  3.1 °C 30.41 in /  1029.7 hPa WNW 6.0 mph /  9.7 km/h 10.0 mph /  16.1 km/h 93 % 0.00 in /  0 mm 0 W/m2
05:45 40.3 °F /  4.6 °C 38.4 °F /  3.6 °C 30.41 in /  1029.7 hPa WNW 6.0 mph /  9.7 km/h 11.0 mph /  17.7 km/h 93 % 0.00 in /  0 mm 0 W/m2
05:50 40.6 °F /  4.8 °C 38.8 °F /  3.8 °C 30.42 in /  1030 hPa WNW 7.0 mph /  11.3 km/h 12.0 mph /  19.3 km/h 93 % 0.00 in /  0 mm 0 W/m2
05:55 41.2 °F /  5.1 °C 39.3 °F /  4.1 °C 30.42 in /  1030 hPa WNW 7.0 mph /  11.3 km/h 11.0 mph /  17.7 km/h 93 % 0.00 in /  0 mm 0 W/m2
06:00 41.5 °F /  5.3 °C 39.7 °F /  4.3 °C 30.42 in /  1030 hPa WNW 8.0 mph /  12.9 km/h 12.0 mph /  19.3 km/h 93 % 0.00 in /  0 mm 0 W/m2
06:05 41.7 °F /  5.4 °C 39.8 °F /  4.3 °C 30.42 in /  1030 hPa NW 7.0 mph /  11.3 km/h 10.0 mph /  16.1 km/h 93 % 0.00 in /  0 mm 0 W/m2
06:10 42.1 °F /  5.6 °C 39.9 °F /  4.4 °C 30.42 in /  1030 hPa NW 7.0 mph /  11.3 km/h 12.0 mph /  19.3 km/h 92 % 0.00 in /  0 mm 0 W/m2
06:15 42.3 °F /  5.7 °C 40.1 °F /  4.5 °C 30.42 in /  1030 hPa WNW 5.0 mph /  8 km/h 9.0 mph /  14.5 km/h 92 % 0.00 in /  0 mm 0 W/m2
06:20 42.3 °F /  5.7 °C 40.1 °F /  4.5 °C 30.42 in /  1030 hPa WNW 6.0 mph /  9.7 km/h 8.0 mph /  12.9 km/h 92 % 0.00 in /  0 mm 0 W/m2
06:25 42.1 °F /  5.6 °C 39.9 °F /  4.4 °C 30.43 in /  1030.4 hPa WNW 6.0 mph /  9.7 km/h 8.0 mph /  12.9 km/h 92 % 0.00 in /  0 mm 0 W/m2
06:30 42.1 °F /  5.6 °C 39.6 °F /  4.2 °C 30.43 in /  1030.4 hPa WNW 6.0 mph /  9.7 km/h 7.0 mph /  11.3 km/h 91 % 0.00 in /  0 mm 0 W/m2
06:35 42.1 °F /  5.6 °C 39.9 °F /  4.4 °C 30.43 in /  1030.4 hPa WNW 6.0 mph /  9.7 km/h 8.0 mph /  12.9 km/h 92 % 0.00 in /  0 mm 0 W/m2
06:40 42.1 °F /  5.6 °C 39.9 °F /  4.4 °C 30.43 in /  1030.4 hPa WNW 5.0 mph /  8 km/h 6.0 mph /  9.7 km/h 92 % 0.00 in /  0 mm 0 W/m2
06:45 42.1 °F /  5.6 °C 39.9 °F /  4.4 °C 30.43 in /  1030.4 hPa WNW 5.0 mph /  8 km/h 7.0 mph /  11.3 km/h 92 % 0.00 in /  0 mm 0 W/m2
06:50 42.1 °F /  5.6 °C 39.9 °F /  4.4 °C 30.43 in /  1030.4 hPa WNW 6.0 mph /  9.7 km/h 9.0 mph /  14.5 km/h 92 % 0.00 in /  0 mm 0 W/m2
06:55 42.3 °F /  5.7 °C 40.4 °F /  4.7 °C 30.43 in /  1030.4 hPa WNW 7.0 mph /  11.3 km/h 10.0 mph /  16.1 km/h 93 % 0.00 in /  0 mm 0 W/m2
07:00 42.6 °F /  5.9 °C 40.7 °F /  4.8 °C 30.43 in /  1030.4 hPa WNW 8.0 mph /  12.9 km/h 11.0 mph /  17.7 km/h 93 % 0.00 in /  0 mm 0 W/m2
07:05 43.0 °F /  6.1 °C 41.1 °F /  5.1 °C 30.43 in /  1030.4 hPa WNW 8.0 mph /  12.9 km/h 12.0 mph /  19.3 km/h 93 % 0.00 in /  0 mm 0 W/m2
07:11 43.0 °F /  6.1 °C 40.8 °F /  4.9 °C 30.43 in /  1030.4 hPa WNW 8.0 mph /  12.9 km/h 11.0 mph /  17.7 km/h 92 % 0.00 in /  0 mm 0 W/m2
07:16 43.2 °F /  6.2 °C 41.0 °F /  5 °C 30.43 in /  1030.4 hPa WNW 8.0 mph /  12.9 km/h 12.0 mph /  19.3 km/h 92 % 0.00 in /  0 mm 0 W/m2
07:21 43.2 °F /  6.2 °C 41.0 °F /  5 °C 30.44 in /  1030.7 hPa WNW 8.0 mph /  12.9 km/h 13.0 mph /  20.9 km/h 92 % 0.00 in /  0 mm 0 W/m2
07:26 43.3 °F /  6.3 °C 41.2 °F /  5.1 °C 30.44 in /  1030.7 hPa WNW 7.0 mph /  11.3 km/h 11.0 mph /  17.7 km/h 92 % 0.00 in /  0 mm 0 W/m2
07:31 43.3 °F /  6.3 °C 41.2 °F /  5.1 °C 30.44 in /  1030.7 hPa WNW 9.0 mph /  14.5 km/h 12.0 mph /  19.3 km/h 92 % 0.00 in /  0 mm 0 W/m2
07:36 43.5 °F /  6.4 °C 41.4 °F /  5.2 °C 30.44 in /  1030.7 hPa WNW 8.0 mph /  12.9 km/h 11.0 mph /  17.7 km/h 92 % 0.00 in /  0 mm 0 W/m2
07:41 43.7 °F /  6.5 °C 41.5 °F /  5.3 °C 30.44 in /  1030.7 hPa WNW 9.0 mph /  14.5 km/h 13.0 mph /  20.9 km/h 92 % 0.00 in /  0 mm 0 W/m2
07:46 43.9 °F /  6.6 °C 41.7 °F /  5.4 °C 30.44 in /  1030.7 hPa WNW 8.0 mph /  12.9 km/h 13.0 mph /  20.9 km/h 92 % 0.00 in /  0 mm 0 W/m2
07:51 44.1 °F /  6.7 °C 41.9 °F /  5.5 °C 30.45 in /  1031 hPa WNW 9.0 mph /  14.5 km/h 15.0 mph /  24.1 km/h 92 % 0.00 in /  0 mm 0 W/m2
07:56 44.2 °F /  6.8 °C 42.1 °F /  5.6 °C 30.45 in /  1031 hPa WNW 10.0 mph /  16.1 km/h 12.0 mph /  19.3 km/h 92 % 0.00 in /  0 mm 0 W/m2
08:01 44.2 °F /  6.8 °C 42.1 °F /  5.6 °C 30.45 in /  1031 hPa WNW 9.0 mph /  14.5 km/h 13.0 mph /  20.9 km/h 92 % 0.00 in /  0 mm 5 W/m2
08:06 44.4 °F /  6.9 °C 42.2 °F /  5.7 °C 30.45 in /  1031 hPa WNW 9.0 mph /  14.5 km/h 13.0 mph /  20.9 km/h 92 % 0.00 in /  0 mm 7 W/m2
08:11 44.6 °F /  7 °C 42.4 °F /  5.8 °C 30.45 in /  1031 hPa WNW 10.0 mph /  16.1 km/h 15.0 mph /  24.1 km/h 92 % 0.00 in /  0 mm 9 W/m2
08:16 44.8 °F /  7.1 °C 42.6 °F /  5.9 °C 30.46 in /  1031.4 hPa WNW 8.0 mph /  12.9 km/h 12.0 mph /  19.3 km/h 92 % 0.00 in /  0 mm 11 W/m2
08:21 44.8 °F /  7.1 °C 42.6 °F /  5.9 °C 30.46 in /  1031.4 hPa WNW 9.0 mph /  14.5 km/h 11.0 mph /  17.7 km/h 92 % 0.00 in /  0 mm 12 W/m2
08:26 44.8 °F /  7.1 °C 42.6 °F /  5.9 °C 30.46 in /  1031.4 hPa WNW 8.0 mph /  12.9 km/h 13.0 mph /  20.9 km/h 92 % 0.00 in /  0 mm 14 W/m2
08:31 44.8 °F /  7.1 °C 42.6 °F /  5.9 °C 30.46 in /  1031.4 hPa WNW 9.0 mph /  14.5 km/h 16.0 mph /  25.7 km/h 92 % 0.00 in /  0 mm 16 W/m2
08:36 44.8 °F /  7.1 °C 42.6 °F /  5.9 °C 30.46 in /  1031.4 hPa WNW 9.0 mph /  14.5 km/h 13.0 mph /  20.9 km/h 92 % 0.00 in /  0 mm 21 W/m2
08:41 44.8 °F /  7.1 °C 42.6 °F /  5.9 °C 30.46 in /  1031.4 hPa WNW 8.0 mph /  12.9 km/h 12.0 mph /  19.3 km/h 92 % 0.00 in /  0 mm 19 W/m2
08:46 44.8 °F /  7.1 °C 42.6 °F /  5.9 °C 30.46 in /  1031.4 hPa WNW 9.0 mph /  14.5 km/h 13.0 mph /  20.9 km/h 92 % 0.00 in /  0 mm 21 W/m2
08:51 44.8 °F /  7.1 °C 42.9 °F /  6.1 °C 30.46 in /  1031.4 hPa WNW 8.0 mph /  12.9 km/h 13.0 mph /  20.9 km/h 93 % 0.00 in /  0 mm 25 W/m2
08:56 44.8 °F /  7.1 °C 42.9 °F /  6.1 °C 30.46 in /  1031.4 hPa WNW 11.0 mph /  17.7 km/h 16.0 mph /  25.7 km/h 93 % 0.00 in /  0 mm 26 W/m2
09:01 45.0 °F /  7.2 °C 43.1 °F /  6.2 °C 30.46 in /  1031.4 hPa WNW 10.0 mph /  16.1 km/h 14.0 mph /  22.5 km/h 93 % 0.00 in /  0 mm 25 W/m2
09:06 45.0 °F /  7.2 °C 43.1 °F /  6.2 °C 30.46 in /  1031.4 hPa WNW 10.0 mph /  16.1 km/h 15.0 mph /  24.1 km/h 93 % 0.00 in /  0 mm 25 W/m2
09:11 45.1 °F /  7.3 °C 43.2 °F /  6.2 °C 30.46 in /  1031.4 hPa WNW 9.0 mph /  14.5 km/h 14.0 mph /  22.5 km/h 93 % 0.00 in /  0 mm 25 W/m2
09:16 45.1 °F /  7.3 °C 43.2 °F /  6.2 °C 30.46 in /  1031.4 hPa WNW 10.0 mph /  16.1 km/h 16.0 mph /  25.7 km/h 93 % 0.00 in /  0 mm 25 W/m2
09:21 45.1 °F /  7.3 °C 43.2 °F /  6.2 °C 30.46 in /  1031.4 hPa WNW 9.0 mph /  14.5 km/h 15.0 mph /  24.1 km/h 93 % 0.00 in /  0 mm 26 W/m2
09:26 45.3 °F /  7.4 °C 43.4 °F /  6.3 °C 30.47 in /  1031.7 hPa WNW 9.0 mph /  14.5 km/h 14.0 mph /  22.5 km/h 93 % 0.00 in /  0 mm 135 W/m2
09:36 45.9 °F /  7.7 °C 44.0 °F /  6.7 °C 30.47 in /  1031.7 hPa WNW 10.0 mph /  16.1 km/h 14.0 mph /  22.5 km/h 93 % 0.00 in /  0 mm 162 W/m2
09:41 46.2 °F /  7.9 °C 44.3 °F /  6.8 °C 30.47 in /  1031.7 hPa WNW 9.0 mph /  14.5 km/h 13.0 mph /  20.9 km/h 93 % 0.00 in /  0 mm 107 W/m2
09:46 46.2 °F /  7.9 °C 44.0 °F /  6.7 °C 30.47 in /  1031.7 hPa WNW 8.0 mph /  12.9 km/h 12.0 mph /  19.3 km/h 92 % 0.00 in /  0 mm 95 W/m2
09:51 46.6 °F /  8.1 °C 44.4 °F /  6.9 °C 30.48 in /  1032.1 hPa West 9.0 mph /  14.5 km/h 15.0 mph /  24.1 km/h 92 % 0.00 in /  0 mm 179 W/m2
09:56 46.9 °F /  8.3 °C 44.4 °F /  6.9 °C 30.48 in /  1032.1 hPa WNW 9.0 mph /  14.5 km/h 12.0 mph /  19.3 km/h 91 % 0.00 in /  0 mm 185 W/m2
10:01 47.1 °F /  8.4 °C 44.6 °F /  7 °C 30.48 in /  1032.1 hPa West 10.0 mph /  16.1 km/h 14.0 mph /  22.5 km/h 91 % 0.00 in /  0 mm 174 W/m2
10:06 47.5 °F /  8.6 °C 44.7 °F /  7.1 °C 30.48 in /  1032.1 hPa West 9.0 mph /  14.5 km/h 15.0 mph /  24.1 km/h 90 % 0.00 in /  0 mm 185 W/m2
10:11 47.7 °F /  8.7 °C 44.9 °F /  7.2 °C 30.48 in /  1032.1 hPa West 9.0 mph /  14.5 km/h 15.0 mph /  24.1 km/h 90 % 0.00 in /  0 mm 220 W/m2
10:16 48.0 °F /  8.9 °C 45.2 °F /  7.3 °C 30.48 in /  1032.1 hPa West 10.0 mph /  16.1 km/h 13.0 mph /  20.9 km/h 90 % 0.00 in /  0 mm 248 W/m2
10:21 48.4 °F /  9.1 °C 45.3 °F /  7.4 °C 30.48 in /  1032.1 hPa West 9.0 mph /  14.5 km/h 13.0 mph /  20.9 km/h 89 % 0.00 in /  0 mm 211 W/m2
10:26 48.6 °F /  9.2 °C 45.5 °F /  7.5 °C 30.48 in /  1032.1 hPa West 8.0 mph /  12.9 km/h 14.0 mph /  22.5 km/h 89 % 0.00 in /  0 mm 220 W/m2
10:31 48.6 °F /  9.2 °C 45.2 °F /  7.3 °C 30.48 in /  1032.1 hPa West 9.0 mph /  14.5 km/h 13.0 mph /  20.9 km/h 88 % 0.00 in /  0 mm 209 W/m2
10:35 48.6 °F /  9.2 °C 45.2 °F /  7.3 °C 30.49 in /  1032.4 hPa West 8.0 mph /  12.9 km/h 11.0 mph /  17.7 km/h 88 % 0.00 in /  0 mm 244 W/m2
10:40 48.7 °F /  9.3 °C 45.3 °F /  7.4 °C 30.49 in /  1032.4 hPa West 9.0 mph /  14.5 km/h 13.0 mph /  20.9 km/h 88 % 0.00 in /  0 mm 127 W/m2
10:46 48.7 °F /  9.3 °C 45.0 °F /  7.2 °C 30.49 in /  1032.4 hPa WNW 8.0 mph /  12.9 km/h 12.0 mph /  19.3 km/h 87 % 0.00 in /  0 mm 93 W/m2
10:51 48.6 °F /  9.2 °C 45.2 °F /  7.3 °C 30.49 in /  1032.4 hPa WNW 9.0 mph /  14.5 km/h 12.0 mph /  19.3 km/h 88 % 0.00 in /  0 mm 120 W/m2
10:56 48.6 °F /  9.2 °C 45.2 °F /  7.3 °C 30.49 in /  1032.4 hPa WNW 11.0 mph /  17.7 km/h 18.0 mph /  29 km/h 88 % 0.00 in /  0 mm 58 W/m2
11:01 48.4 °F /  9.1 °C 44.7 °F /  7.1 °C 30.49 in /  1032.4 hPa WNW 9.0 mph /  14.5 km/h 13.0 mph /  20.9 km/h 87 % 0.00 in /  0 mm 35 W/m2
11:06 48.4 °F /  9.1 °C 45.0 °F /  7.2 °C 30.49 in /  1032.4 hPa WNW 8.0 mph /  12.9 km/h 11.0 mph /  17.7 km/h 88 % 0.00 in /  0 mm 199 W/m2
11:11 48.6 °F /  9.2 °C 45.2 °F /  7.3 °C 30.49 in /  1032.4 hPa WNW 7.0 mph /  11.3 km/h 10.0 mph /  16.1 km/h 88 % 0.00 in /  0 mm 69 W/m2
11:16 48.4 °F /  9.1 °C 44.7 °F /  7.1 °C 30.49 in /  1032.4 hPa WNW 7.0 mph /  11.3 km/h 10.0 mph /  16.1 km/h 87 % 0.00 in /  0 mm 47 W/m2
11:21 48.0 °F /  8.9 °C 44.6 °F /  7 °C 30.49 in /  1032.4 hPa West 6.0 mph /  9.7 km/h 11.0 mph /  17.7 km/h 88 % 0.00 in /  0 mm 51 W/m2
11:26 48.0 °F /  8.9 °C 44.6 °F /  7 °C 30.49 in /  1032.4 hPa WNW 8.0 mph /  12.9 km/h 11.0 mph /  17.7 km/h 88 % 0.00 in /  0 mm 90 W/m2
11:31 48.0 °F /  8.9 °C 44.9 °F /  7.2 °C 30.49 in /  1032.4 hPa WNW 8.0 mph /  12.9 km/h 11.0 mph /  17.7 km/h 89 % 0.00 in /  0 mm 359 W/m2
11:36 48.6 °F /  9.2 °C 45.5 °F /  7.5 °C 30.49 in /  1032.4 hPa West 6.0 mph /  9.7 km/h 9.0 mph /  14.5 km/h 89 % 0.00 in /  0 mm 158 W/m2
11:41 48.9 °F /  9.4 °C 45.5 °F /  7.5 °C 30.49 in /  1032.4 hPa WNW 5.0 mph /  8 km/h 9.0 mph /  14.5 km/h 88 % 0.00 in /  0 mm 114 W/m2
11:46 48.9 °F /  9.4 °C 45.5 °F /  7.5 °C 30.49 in /  1032.4 hPa WNW 7.0 mph /  11.3 km/h 11.0 mph /  17.7 km/h 88 % 0.00 in /  0 mm 116 W/m2
11:51 48.7 °F /  9.3 °C 45.0 °F /  7.2 °C 30.49 in /  1032.4 hPa WNW 8.0 mph /  12.9 km/h 14.0 mph /  22.5 km/h 87 % 0.00 in /  0 mm 77 W/m2
11:56 48.7 °F /  9.3 °C 44.7 °F /  7.1 °C 30.49 in /  1032.4 hPa WNW 9.0 mph /  14.5 km/h 12.0 mph /  19.3 km/h 86 % 0.00 in /  0 mm 67 W/m2
12:01 48.6 °F /  9.2 °C 44.6 °F /  7 °C 30.49 in /  1032.4 hPa West 9.0 mph /  14.5 km/h 15.0 mph /  24.1 km/h 86 % 0.00 in /  0 mm 72 W/m2
12:06 48.6 °F /  9.2 °C 44.6 °F /  7 °C 30.49 in /  1032.4 hPa WNW 10.0 mph /  16.1 km/h 15.0 mph /  24.1 km/h 86 % 0.00 in /  0 mm 44 W/m2
12:11 48.4 °F /  9.1 °C 44.7 °F /  7.1 °C 30.49 in /  1032.4 hPa WNW 9.0 mph /  14.5 km/h 13.0 mph /  20.9 km/h 87 % 0.00 in /  0 mm 86 W/m2
12:16 48.4 °F /  9.1 °C 45.0 °F /  7.2 °C 30.48 in /  1032.1 hPa West 8.0 mph /  12.9 km/h 11.0 mph /  17.7 km/h 88 % 0.00 in /  0 mm 269 W/m2
12:21 48.6 °F /  9.2 °C 45.2 °F /  7.3 °C 30.48 in /  1032.1 hPa West 8.0 mph /  12.9 km/h 13.0 mph /  20.9 km/h 88 % 0.00 in /  0 mm 251 W/m2
12:26 48.9 °F /  9.4 °C 45.5 °F /  7.5 °C 30.48 in /  1032.1 hPa WNW 8.0 mph /  12.9 km/h 11.0 mph /  17.7 km/h 88 % 0.00 in /  0 mm 267 W/m2
12:31 49.5 °F /  9.7 °C 45.4 °F /  7.4 °C 30.48 in /  1032.1 hPa WNW 9.0 mph /  14.5 km/h 15.0 mph /  24.1 km/h 86 % 0.00 in /  0 mm 315 W/m2
12:36 49.8 °F /  9.9 °C 45.5 °F /  7.5 °C 30.48 in /  1032.1 hPa WNW 10.0 mph /  16.1 km/h 18.0 mph /  29 km/h 85 % 0.00 in /  0 mm 301 W/m2
12:41 50.2 °F /  10.1 °C 45.5 °F /  7.5 °C 30.48 in /  1032.1 hPa WNW 10.0 mph /  16.1 km/h 15.0 mph /  24.1 km/h 84 % 0.00 in /  0 mm 144 W/m2
12:46 50.2 °F /  10.1 °C 45.2 °F /  7.3 °C 30.48 in /  1032.1 hPa WNW 11.0 mph /  17.7 km/h 14.0 mph /  22.5 km/h 83 % 0.00 in /  0 mm 95 W/m2
12:51 49.8 °F /  9.9 °C 44.9 °F /  7.2 °C 30.48 in /  1032.1 hPa WNW 11.0 mph /  17.7 km/h 18.0 mph /  29 km/h 83 % 0.00 in /  0 mm 116 W/m2
12:56 49.6 °F /  9.8 °C 45.0 °F /  7.2 °C 30.48 in /  1032.1 hPa WNW 7.0 mph /  11.3 km/h 10.0 mph /  16.1 km/h 84 % 0.00 in /  0 mm 111 W/m2
13:06 49.5 °F /  9.7 °C 45.1 °F /  7.3 °C 30.48 in /  1032.1 hPa WNW 8.0 mph /  12.9 km/h 14.0 mph /  22.5 km/h 85 % 0.00 in /  0 mm 271 W/m2
13:11 49.8 °F /  9.9 °C 45.5 °F /  7.5 °C 30.48 in /  1032.1 hPa WNW 9.0 mph /  14.5 km/h 14.0 mph /  22.5 km/h 85 % 0.00 in /  0 mm 355 W/m2
13:16 50.4 °F /  10.2 °C 45.7 °F /  7.6 °C 30.48 in /  1032.1 hPa WNW 10.0 mph /  16.1 km/h 15.0 mph /  24.1 km/h 84 % 0.00 in /  0 mm 151 W/m2
13:21 50.7 °F /  10.4 °C 45.7 °F /  7.6 °C 30.48 in /  1032.1 hPa WNW 9.0 mph /  14.5 km/h 14.0 mph /  22.5 km/h 83 % 0.00 in /  0 mm 83 W/m2
13:26 50.5 °F /  10.3 °C 45.2 °F /  7.3 °C 30.48 in /  1032.1 hPa WNW 11.0 mph /  17.7 km/h 15.0 mph /  24.1 km/h 82 % 0.00 in /  0 mm 221 W/m2
13:31 50.5 °F /  10.3 °C 45.2 °F /  7.3 °C 30.48 in /  1032.1 hPa WNW 10.0 mph /  16.1 km/h 15.0 mph /  24.1 km/h 82 % 0.00 in /  0 mm 62 W/m2
13:36 50.2 °F /  10.1 °C 44.9 °F /  7.2 °C 30.48 in /  1032.1 hPa WNW 9.0 mph /  14.5 km/h 14.0 mph /  22.5 km/h 82 % 0.00 in /  0 mm 33 W/m2
13:41 49.6 °F /  9.8 °C 44.4 °F /  6.9 °C 30.48 in /  1032.1 hPa WNW 9.0 mph /  14.5 km/h 14.0 mph /  22.5 km/h 82 % 0.00 in /  0 mm 42 W/m2
13:46 49.3 °F /  9.6 °C 44.3 °F /  6.8 °C 30.47 in /  1031.7 hPa WNW 7.0 mph /  11.3 km/h 13.0 mph /  20.9 km/h 83 % 0.00 in /  0 mm 49 W/m2
13:51 48.9 °F /  9.4 °C 44.0 °F /  6.7 °C 30.47 in /  1031.7 hPa WNW 8.0 mph /  12.9 km/h 15.0 mph /  24.1 km/h 83 % 0.00 in /  0 mm 127 W/m2
13:56 48.9 °F /  9.4 °C 44.3 °F /  6.8 °C 30.47 in /  1031.7 hPa WNW 8.0 mph /  12.9 km/h 12.0 mph /  19.3 km/h 84 % 0.00 in /  0 mm 125 W/m2
14:01 49.3 °F /  9.6 °C 44.6 °F /  7 °C 30.47 in /  1031.7 hPa WNW 7.0 mph /  11.3 km/h 11.0 mph /  17.7 km/h 84 % 0.00 in /  0 mm 39 W/m2
14:06 48.9 °F /  9.4 °C 44.3 °F /  6.8 °C 30.47 in /  1031.7 hPa WNW 5.0 mph /  8 km/h 8.0 mph /  12.9 km/h 84 % 0.00 in /  0 mm 62 W/m2
14:11 48.7 °F /  9.3 °C 44.1 °F /  6.7 °C 30.47 in /  1031.7 hPa WNW 7.0 mph /  11.3 km/h 10.0 mph /  16.1 km/h 84 % 0.00 in /  0 mm 107 W/m2
14:16 48.7 °F /  9.3 °C 44.1 °F /  6.7 °C 30.47 in /  1031.7 hPa WNW 6.0 mph /  9.7 km/h 9.0 mph /  14.5 km/h 84 % 0.00 in /  0 mm 141 W/m2
14:21 48.9 °F /  9.4 °C 44.3 °F /  6.8 °C 30.47 in /  1031.7 hPa WNW 7.0 mph /  11.3 km/h 11.0 mph /  17.7 km/h 84 % 0.00 in /  0 mm 104 W/m2
14:26 49.3 °F /  9.6 °C 44.3 °F /  6.8 °C 30.47 in /  1031.7 hPa WNW 5.0 mph /  8 km/h 8.0 mph /  12.9 km/h 83 % 0.00 in /  0 mm 121 W/m2
14:31 49.5 °F /  9.7 °C 44.5 °F /  6.9 °C 30.47 in /  1031.7 hPa WNW 6.0 mph /  9.7 km/h 10.0 mph /  16.1 km/h 83 % 0.00 in /  0 mm 111 W/m2
14:36 49.5 °F /  9.7 °C 44.2 °F /  6.8 °C 30.47 in /  1031.7 hPa WNW 9.0 mph /  14.5 km/h 15.0 mph /  24.1 km/h 82 % 0.00 in /  0 mm 100 W/m2
14:41 49.3 °F /  9.6 °C 44.0 °F /  6.7 °C 30.47 in /  1031.7 hPa WNW 10.0 mph /  16.1 km/h 14.0 mph /  22.5 km/h 82 % 0.00 in /  0 mm 98 W/m2
14:46 48.9 °F /  9.4 °C 44.0 °F /  6.7 °C 30.47 in /  1031.7 hPa WNW 8.0 mph /  12.9 km/h 13.0 mph /  20.9 km/h 83 % 0.00 in /  0 mm 86 W/m2
14:51 48.6 °F /  9.2 °C 43.6 °F /  6.4 °C 30.47 in /  1031.7 hPa West 6.0 mph /  9.7 km/h 9.0 mph /  14.5 km/h 83 % 0.00 in /  0 mm 47 W/m2
14:56 48.4 °F /  9.1 °C 43.5 °F /  6.4 °C 30.47 in /  1031.7 hPa West 7.0 mph /  11.3 km/h 10.0 mph /  16.1 km/h 83 % 0.00 in /  0 mm 19 W/m2
15:01 48.0 °F /  8.9 °C 43.1 °F /  6.2 °C 30.48 in /  1032.1 hPa West 5.0 mph /  8 km/h 9.0 mph /  14.5 km/h 83 % 0.00 in /  0 mm 18 W/m2
15:06 47.7 °F /  8.7 °C 43.1 °F /  6.2 °C 30.48 in /  1032.1 hPa West 5.0 mph /  8 km/h 8.0 mph /  12.9 km/h 84 % 0.00 in /  0 mm 26 W/m2
15:11 47.5 °F /  8.6 °C 42.9 °F /  6.1 °C 30.48 in /  1032.1 hPa West 5.0 mph /  8 km/h 8.0 mph /  12.9 km/h 84 % 0.00 in /  0 mm 26 W/m2
15:16 47.1 °F /  8.4 °C 42.8 °F /  6 °C 30.47 in /  1031.7 hPa West 5.0 mph /  8 km/h 9.0 mph /  14.5 km/h 85 % 0.00 in /  0 mm 16 W/m2
15:21 46.9 °F /  8.3 °C 42.7 °F /  5.9 °C 30.48 in /  1032.1 hPa WNW 7.0 mph /  11.3 km/h 10.0 mph /  16.1 km/h 85 % 0.00 in /  0 mm 16 W/m2
15:26 46.9 °F /  8.3 °C 43.0 °F /  6.1 °C 30.48 in /  1032.1 hPa WNW 7.0 mph /  11.3 km/h 10.0 mph /  16.1 km/h 86 % 0.00 in /  0 mm 12 W/m2
15:31 46.8 °F /  8.2 °C 42.8 °F /  6 °C 30.47 in /  1031.7 hPa WNW 8.0 mph /  12.9 km/h 10.0 mph /  16.1 km/h 86 % 0.00 in /  0 mm 9 W/m2
15:37 46.6 °F /  8.1 °C 42.9 °F /  6.1 °C 30.48 in /  1032.1 hPa WNW 7.0 mph /  11.3 km/h 11.0 mph /  17.7 km/h 87 % 0.00 in /  0 mm 7 W/m2
15:42 46.6 °F /  8.1 °C 42.9 °F /  6.1 °C 30.48 in /  1032.1 hPa WNW 9.0 mph /  14.5 km/h 13.0 mph /  20.9 km/h 87 % 0.00 in /  0 mm 7 W/m2
15:47 46.6 °F /  8.1 °C 43.2 °F /  6.2 °C 30.48 in /  1032.1 hPa WNW 7.0 mph /  11.3 km/h 10.0 mph /  16.1 km/h 88 % 0.00 in /  0 mm 5 W/m2
15:49 46.6 °F /  8.1 °C 43.2 °F /  6.2 °C 30.48 in /  1032.1 hPa NW 8.0 mph /  12.9 km/h 12.0 mph /  19.3 km/h 88 % 0.00 in /  0 mm 5 W/m2
15:54 46.8 °F /  8.2 °C 43.4 °F /  6.3 °C 30.48 in /  1032.1 hPa WNW 5.0 mph /  8 km/h 10.0 mph /  16.1 km/h 88 % 0.00 in /  0 mm 0 W/m2
15:59 46.8 °F /  8.2 °C 43.4 °F /  6.3 °C 30.48 in /  1032.1 hPa WNW 6.0 mph /  9.7 km/h 10.0 mph /  16.1 km/h 88 % 0.00 in /  0 mm 0 W/m2
16:04 46.8 °F /  8.2 °C 43.4 °F /  6.3 °C 30.48 in /  1032.1 hPa WNW 6.0 mph /  9.7 km/h 10.0 mph /  16.1 km/h 88 % 0.00 in /  0 mm 0 W/m2
16:09 46.9 °F /  8.3 °C 43.6 °F /  6.4 °C 30.48 in /  1032.1 hPa WNW 7.0 mph /  11.3 km/h 12.0 mph /  19.3 km/h 88 % 0.00 in /  0 mm 0 W/m2
16:14 46.9 °F /  8.3 °C 43.6 °F /  6.4 °C 30.48 in /  1032.1 hPa West 5.0 mph /  8 km/h 8.0 mph /  12.9 km/h 88 % 0.00 in /  0 mm 0 W/m2
16:19 46.9 °F /  8.3 °C 43.6 °F /  6.4 °C 30.48 in /  1032.1 hPa WNW 4.0 mph /  6.4 km/h 9.0 mph /  14.5 km/h 88 % 0.00 in /  0 mm 0 W/m2
16:24 46.9 °F /  8.3 °C 43.6 °F /  6.4 °C 30.49 in /  1032.4 hPa WNW 7.0 mph /  11.3 km/h 10.0 mph /  16.1 km/h 88 % 0.00 in /  0 mm 0 W/m2
16:30 46.9 °F /  8.3 °C 43.6 °F /  6.4 °C 30.49 in /  1032.4 hPa WNW 5.0 mph /  8 km/h 7.0 mph /  11.3 km/h 88 % 0.00 in /  0 mm 0 W/m2
16:35 46.9 °F /  8.3 °C 43.6 °F /  6.4 °C 30.49 in /  1032.4 hPa WNW 5.0 mph /  8 km/h 7.0 mph /  11.3 km/h 88 % 0.00 in /  0 mm 0 W/m2
16:40 47.1 °F /  8.4 °C 43.7 °F /  6.5 °C 30.49 in /  1032.4 hPa West 7.0 mph /  11.3 km/h 10.0 mph /  16.1 km/h 88 % 0.00 in /  0 mm 0 W/m2
16:45 47.1 °F /  8.4 °C 43.4 °F /  6.3 °C 30.49 in /  1032.4 hPa WNW 6.0 mph /  9.7 km/h 10.0 mph /  16.1 km/h 87 % 0.00 in /  0 mm 0 W/m2
16:50 47.1 °F /  8.4 °C 43.4 °F /  6.3 °C 30.49 in /  1032.4 hPa WNW 4.0 mph /  6.4 km/h 7.0 mph /  11.3 km/h 87 % 0.00 in /  0 mm 0 W/m2
16:55 47.1 °F /  8.4 °C 43.4 °F /  6.3 °C 30.50 in /  1032.7 hPa WNW 6.0 mph /  9.7 km/h 10.0 mph /  16.1 km/h 87 % 0.00 in /  0 mm 0 W/m2
17:00 46.9 °F /  8.3 °C 43.3 °F /  6.3 °C 30.50 in /  1032.7 hPa WNW 5.0 mph /  8 km/h 8.0 mph /  12.9 km/h 87 % 0.00 in /  0 mm 0 W/m2
17:05 46.9 °F /  8.3 °C 43.3 °F /  6.3 °C 30.50 in /  1032.7 hPa WNW 6.0 mph /  9.7 km/h 9.0 mph /  14.5 km/h 87 % 0.00 in /  0 mm 0 W/m2
17:10 47.1 °F /  8.4 °C 43.4 °F /  6.3 °C 30.50 in /  1032.7 hPa WNW 4.0 mph /  6.4 km/h 6.0 mph /  9.7 km/h 87 % 0.00 in /  0 mm 0 W/m2
17:15 47.1 °F /  8.4 °C 43.4 °F /  6.3 °C 30.50 in /  1032.7 hPa West 5.0 mph /  8 km/h 10.0 mph /  16.1 km/h 87 % 0.00 in /  0 mm 0 W/m2
17:20 47.1 °F /  8.4 °C 43.4 °F /  6.3 °C 30.50 in /  1032.7 hPa WNW 6.0 mph /  9.7 km/h 8.0 mph /  12.9 km/h 87 % 0.00 in /  0 mm 0 W/m2
17:25 46.9 °F /  8.3 °C 43.3 °F /  6.3 °C 30.50 in /  1032.7 hPa NW 5.0 mph /  8 km/h 8.0 mph /  12.9 km/h 87 % 0.00 in /  0 mm 0 W/m2
17:30 47.1 °F /  8.4 °C 43.4 °F /  6.3 °C 30.50 in /  1032.7 hPa WNW 5.0 mph /  8 km/h 9.0 mph /  14.5 km/h 87 % 0.00 in /  0 mm 0 W/m2
17:35 47.1 °F /  8.4 °C 43.4 °F /  6.3 °C 30.50 in /  1032.7 hPa WNW 3.0 mph /  4.8 km/h 7.0 mph /  11.3 km/h 87 % 0.00 in /  0 mm 0 W/m2
17:40 47.1 °F /  8.4 °C 43.4 °F /  6.3 °C 30.50 in /  1032.7 hPa Calm   2.0 mph /  3.2 km/h 87 % 0.00 in /  0 mm 0 W/m2
17:45 47.1 °F /  8.4 °C 43.4 °F /  6.3 °C 30.50 in /  1032.7 hPa WNW 6.0 mph /  9.7 km/h 11.0 mph /  17.7 km/h 87 % 0.00 in /  0 mm 0 W/m2
17:50 47.1 °F /  8.4 °C 43.4 °F /  6.3 °C 30.50 in /  1032.7 hPa NW 7.0 mph /  11.3 km/h 14.0 mph /  22.5 km/h 87 % 0.00 in /  0 mm 0 W/m2
17:55 46.9 °F /  8.3 °C 43.3 °F /  6.3 °C 30.50 in /  1032.7 hPa WNW 10.0 mph /  16.1 km/h 15.0 mph /  24.1 km/h 87 % 0.00 in /  0 mm 0 W/m2
18:00 46.9 °F /  8.3 °C 43.3 °F /  6.3 °C 30.50 in /  1032.7 hPa WNW 7.0 mph /  11.3 km/h 12.0 mph /  19.3 km/h 87 % 0.00 in /  0 mm 0 W/m2
18:05 46.9 °F /  8.3 °C 43.3 °F /  6.3 °C 30.51 in /  1033.1 hPa NW 6.0 mph /  9.7 km/h 11.0 mph /  17.7 km/h 87 % 0.00 in /  0 mm 0 W/m2
18:10 46.8 °F /  8.2 °C 43.4 °F /  6.3 °C 30.51 in /  1033.1 hPa WNW 7.0 mph /  11.3 km/h 11.0 mph /  17.7 km/h 88 % 0.00 in /  0 mm 0 W/m2
18:15 46.8 °F /  8.2 °C 43.4 °F /  6.3 °C 30.50 in /  1032.7 hPa WNW 8.0 mph /  12.9 km/h 12.0 mph /  19.3 km/h 88 % 0.00 in /  0 mm 0 W/m2
18:20 46.8 °F /  8.2 °C 43.4 °F /  6.3 °C 30.50 in /  1032.7 hPa WNW 5.0 mph /  8 km/h 11.0 mph /  17.7 km/h 88 % 0.00 in /  0 mm 0 W/m2
18:25 46.8 °F /  8.2 °C 43.4 °F /  6.3 °C 30.50 in /  1032.7 hPa WNW 5.0 mph /  8 km/h 8.0 mph /  12.9 km/h 88 % 0.00 in /  0 mm 0 W/m2
18:30 46.8 °F /  8.2 °C 43.4 °F /  6.3 °C 30.50 in /  1032.7 hPa WNW 4.0 mph /  6.4 km/h 8.0 mph /  12.9 km/h 88 % 0.00 in /  0 mm 0 W/m2
18:35 46.6 °F /  8.1 °C 43.2 °F /  6.2 °C 30.50 in /  1032.7 hPa WNW 3.0 mph /  4.8 km/h 7.0 mph /  11.3 km/h 88 % 0.00 in /  0 mm 0 W/m2
18:40 46.6 °F /  8.1 °C 43.2 °F /  6.2 °C 30.50 in /  1032.7 hPa WNW 6.0 mph /  9.7 km/h 8.0 mph /  12.9 km/h 88 % 0.00 in /  0 mm 0 W/m2
18:45 46.6 °F /  8.1 °C 42.9 °F /  6.1 °C 30.51 in /  1033.1 hPa NW 5.0 mph /  8 km/h 7.0 mph /  11.3 km/h 87 % 0.00 in /  0 mm 0 W/m2
18:50 46.6 °F /  8.1 °C 42.9 °F /  6.1 °C 30.51 in /  1033.1 hPa NW 4.0 mph /  6.4 km/h 8.0 mph /  12.9 km/h 87 % 0.00 in /  0 mm 0 W/m2
18:55 46.6 °F /  8.1 °C 42.9 °F /  6.1 °C 30.51 in /  1033.1 hPa WNW 2.0 mph /  3.2 km/h 8.0 mph /  12.9 km/h 87 % 0.00 in /  0 mm 0 W/m2
19:00 46.6 °F /  8.1 °C 42.9 °F /  6.1 °C 30.51 in /  1033.1 hPa WNW 5.0 mph /  8 km/h 9.0 mph /  14.5 km/h 87 % 0.00 in /  0 mm 0 W/m2
19:05 46.6 °F /  8.1 °C 42.6 °F /  5.9 °C 30.51 in /  1033.1 hPa West 3.0 mph /  4.8 km/h 7.0 mph /  11.3 km/h 86 % 0.00 in /  0 mm 0 W/m2
19:10 46.6 °F /  8.1 °C 42.6 °F /  5.9 °C 30.51 in /  1033.1 hPa WSW 3.0 mph /  4.8 km/h 6.0 mph /  9.7 km/h 86 % 0.00 in /  0 mm 0 W/m2
19:15 46.6 °F /  8.1 °C 42.6 °F /  5.9 °C 30.51 in /  1033.1 hPa WNW 4.0 mph /  6.4 km/h 9.0 mph /  14.5 km/h 86 % 0.00 in /  0 mm 0 W/m2
19:20 46.6 °F /  8.1 °C 42.6 °F /  5.9 °C 30.51 in /  1033.1 hPa WNW 5.0 mph /  8 km/h 8.0 mph /  12.9 km/h 86 % 0.00 in /  0 mm 0 W/m2
19:25 46.6 °F /  8.1 °C 42.6 °F /  5.9 °C 30.51 in /  1033.1 hPa WNW 2.0 mph /  3.2 km/h 5.0 mph /  8 km/h 86 % 0.00 in /  0 mm 0 W/m2
19:26 46.6 °F /  8.1 °C 42.6 °F /  5.9 °C 30.51 in /  1033.1 hPa WNW 1.0 mph /  1.6 km/h 5.0 mph /  8 km/h 86 % 0.00 in /  0 mm 0 W/m2
19:31 46.6 °F /  8.1 °C 42.6 °F /  5.9 °C 30.51 in /  1033.1 hPa West 5.0 mph /  8 km/h 10.0 mph /  16.1 km/h 86 % 0.00 in /  0 mm 0 W/m2
19:36 46.8 °F /  8.2 °C 42.8 °F /  6 °C 30.51 in /  1033.1 hPa WNW 6.0 mph /  9.7 km/h 10.0 mph /  16.1 km/h 86 % 0.00 in /  0 mm 0 W/m2
19:41 46.8 °F /  8.2 °C 42.8 °F /  6 °C 30.51 in /  1033.1 hPa WNW 7.0 mph /  11.3 km/h 10.0 mph /  16.1 km/h 86 % 0.00 in /  0 mm 0 W/m2
19:46 46.8 °F /  8.2 °C 42.8 °F /  6 °C 30.51 in /  1033.1 hPa WNW 7.0 mph /  11.3 km/h 13.0 mph /  20.9 km/h 86 % 0.00 in /  0 mm 0 W/m2
19:51 46.8 °F /  8.2 °C 42.8 °F /  6 °C 30.51 in /  1033.1 hPa WNW 5.0 mph /  8 km/h 8.0 mph /  12.9 km/h 86 % 0.00 in /  0 mm 0 W/m2
19:56 46.8 °F /  8.2 °C 42.8 °F /  6 °C 30.52 in /  1033.4 hPa WNW 6.0 mph /  9.7 km/h 10.0 mph /  16.1 km/h 86 % 0.00 in /  0 mm 0 W/m2
20:01 46.8 °F /  8.2 °C 43.1 °F /  6.2 °C 30.51 in /  1033.1 hPa WNW 7.0 mph /  11.3 km/h 13.0 mph /  20.9 km/h 87 % 0.00 in /  0 mm 0 W/m2
20:06 46.8 °F /  8.2 °C 43.1 °F /  6.2 °C 30.51 in /  1033.1 hPa WNW 5.0 mph /  8 km/h 8.0 mph /  12.9 km/h 87 % 0.00 in /  0 mm 0 W/m2
20:11 46.8 °F /  8.2 °C 43.1 °F /  6.2 °C 30.52 in /  1033.4 hPa WNW 6.0 mph /  9.7 km/h 10.0 mph /  16.1 km/h 87 % 0.00 in /  0 mm 0 W/m2
20:16 46.8 °F /  8.2 °C 43.1 °F /  6.2 °C 30.52 in /  1033.4 hPa WNW 5.0 mph /  8 km/h 10.0 mph /  16.1 km/h 87 % 0.00 in /  0 mm 0 W/m2
20:21 46.8 °F /  8.2 °C 43.1 °F /  6.2 °C 30.52 in /  1033.4 hPa West 6.0 mph /  9.7 km/h 8.0 mph /  12.9 km/h 87 % 0.00 in /  0 mm 0 W/m2
20:26 46.8 °F /  8.2 °C 43.1 °F /  6.2 °C 30.51 in /  1033.1 hPa WNW 7.0 mph /  11.3 km/h 10.0 mph /  16.1 km/h 87 % 0.00 in /  0 mm 0 W/m2
20:31 46.8 °F /  8.2 °C 43.1 °F /  6.2 °C 30.52 in /  1033.4 hPa WNW 8.0 mph /  12.9 km/h 15.0 mph /  24.1 km/h 87 % 0.00 in /  0 mm 0 W/m2
20:37 46.8 °F /  8.2 °C 43.1 °F /  6.2 °C 30.51 in /  1033.1 hPa WNW 8.0 mph /  12.9 km/h 12.0 mph /  19.3 km/h 87 % 0.00 in /  0 mm 0 W/m2
20:42 46.8 °F /  8.2 °C 43.1 °F /  6.2 °C 30.51 in /  1033.1 hPa WNW 8.0 mph /  12.9 km/h 13.0 mph /  20.9 km/h 87 % 0.00 in /  0 mm 0 W/m2
20:47 46.8 °F /  8.2 °C 43.1 °F /  6.2 °C 30.51 in /  1033.1 hPa West 5.0 mph /  8 km/h 8.0 mph /  12.9 km/h 87 % 0.00 in /  0 mm 0 W/m2
20:52 46.8 °F /  8.2 °C 43.1 °F /  6.2 °C 30.52 in /  1033.4 hPa WNW 8.0 mph /  12.9 km/h 15.0 mph /  24.1 km/h 87 % 0.00 in /  0 mm 0 W/m2
20:57 46.8 °F /  8.2 °C 43.1 °F /  6.2 °C 30.52 in /  1033.4 hPa West 7.0 mph /  11.3 km/h 9.0 mph /  14.5 km/h 87 % 0.00 in /  0 mm 0 W/m2
21:02 46.8 °F /  8.2 °C 43.1 °F /  6.2 °C 30.52 in /  1033.4 hPa West 6.0 mph /  9.7 km/h 9.0 mph /  14.5 km/h 87 % 0.00 in /  0 mm 0 W/m2
21:07 46.8 °F /  8.2 °C 43.1 °F /  6.2 °C 30.52 in /  1033.4 hPa WNW 5.0 mph /  8 km/h 8.0 mph /  12.9 km/h 87 % 0.00 in /  0 mm 0 W/m2
21:12 46.8 °F /  8.2 °C 43.1 °F /  6.2 °C 30.52 in /  1033.4 hPa WNW 8.0 mph /  12.9 km/h 12.0 mph /  19.3 km/h 87 % 0.00 in /  0 mm 0 W/m2
21:17 46.8 °F /  8.2 °C 43.1 °F /  6.2 °C 30.52 in /  1033.4 hPa WNW 7.0 mph /  11.3 km/h 11.0 mph /  17.7 km/h 87 % 0.00 in /  0 mm 0 W/m2
21:22 46.8 °F /  8.2 °C 43.1 °F /  6.2 °C 30.52 in /  1033.4 hPa WNW 4.0 mph /  6.4 km/h 8.0 mph /  12.9 km/h 87 % 0.00 in /  0 mm 0 W/m2
21:27 46.8 °F /  8.2 °C 43.1 °F /  6.2 °C 30.52 in /  1033.4 hPa WNW 6.0 mph /  9.7 km/h 10.0 mph /  16.1 km/h 87 % 0.00 in /  0 mm 0 W/m2
21:32 46.6 °F /  8.1 °C 42.9 °F /  6.1 °C 30.52 in /  1033.4 hPa WNW 8.0 mph /  12.9 km/h 12.0 mph /  19.3 km/h 87 % 0.00 in /  0 mm 0 W/m2
21:37 46.8 °F /  8.2 °C 43.1 °F /  6.2 °C 30.52 in /  1033.4 hPa WNW 7.0 mph /  11.3 km/h 12.0 mph /  19.3 km/h 87 % 0.00 in /  0 mm 0 W/m2
21:42 46.6 °F /  8.1 °C 42.9 °F /  6.1 °C 30.52 in /  1033.4 hPa WNW 7.0 mph /  11.3 km/h 11.0 mph /  17.7 km/h 87 % 0.00 in /  0 mm 0 W/m2
21:47 46.6 °F /  8.1 °C 42.9 °F /  6.1 °C 30.52 in /  1033.4 hPa West 7.0 mph /  11.3 km/h 9.0 mph /  14.5 km/h 87 % 0.00 in /  0 mm 0 W/m2
21:49 46.6 °F /  8.1 °C 42.9 °F /  6.1 °C 30.52 in /  1033.4 hPa WNW 4.0 mph /  6.4 km/h 8.0 mph /  12.9 km/h 87 % 0.00 in /  0 mm 0 W/m2
21:54 46.6 °F /  8.1 °C 42.9 °F /  6.1 °C 30.52 in /  1033.4 hPa WNW 6.0 mph /  9.7 km/h 10.0 mph /  16.1 km/h 87 % 0.00 in /  0 mm 0 W/m2
21:59 46.6 °F /  8.1 °C 42.9 °F /  6.1 °C 30.52 in /  1033.4 hPa WNW 5.0 mph /  8 km/h 9.0 mph /  14.5 km/h 87 % 0.00 in /  0 mm 0 W/m2
22:04 46.6 °F /  8.1 °C 42.9 °F /  6.1 °C 30.52 in /  1033.4 hPa West 6.0 mph /  9.7 km/h 9.0 mph /  14.5 km/h 87 % 0.00 in /  0 mm 0 W/m2
22:09 46.6 °F /  8.1 °C 42.9 °F /  6.1 °C 30.52 in /  1033.4 hPa West 8.0 mph /  12.9 km/h 12.0 mph /  19.3 km/h 87 % 0.00 in /  0 mm 0 W/m2
22:14 46.6 °F /  8.1 °C 42.6 °F /  5.9 °C 30.52 in /  1033.4 hPa West 7.0 mph /  11.3 km/h 10.0 mph /  16.1 km/h 86 % 0.00 in /  0 mm 0 W/m2
22:19 46.6 °F /  8.1 °C 42.6 °F /  5.9 °C 30.52 in /  1033.4 hPa WNW 9.0 mph /  14.5 km/h 12.0 mph /  19.3 km/h 86 % 0.00 in /  0 mm 0 W/m2
22:24 46.6 °F /  8.1 °C 42.6 °F /  5.9 °C 30.52 in /  1033.4 hPa WNW 8.0 mph /  12.9 km/h 12.0 mph /  19.3 km/h 86 % 0.00 in /  0 mm 0 W/m2
22:29 46.8 °F /  8.2 °C 42.8 °F /  6 °C 30.52 in /  1033.4 hPa WNW 9.0 mph /  14.5 km/h 13.0 mph /  20.9 km/h 86 % 0.00 in /  0 mm 0 W/m2
22:34 46.8 °F /  8.2 °C 42.8 °F /  6 °C 30.52 in /  1033.4 hPa WNW 8.0 mph /  12.9 km/h 11.0 mph /  17.7 km/h 86 % 0.00 in /  0 mm 0 W/m2
22:39 46.8 °F /  8.2 °C 42.5 °F /  5.8 °C 30.52 in /  1033.4 hPa West 10.0 mph /  16.1 km/h 13.0 mph /  20.9 km/h 85 % 0.00 in /  0 mm 0 W/m2
22:44 46.8 °F /  8.2 °C 42.5 °F /  5.8 °C 30.52 in /  1033.4 hPa WNW 8.0 mph /  12.9 km/h 10.0 mph /  16.1 km/h 85 % 0.00 in /  0 mm 0 W/m2
22:49 46.8 °F /  8.2 °C 42.5 °F /  5.8 °C 30.52 in /  1033.4 hPa WNW 8.0 mph /  12.9 km/h 12.0 mph /  19.3 km/h 85 % 0.00 in /  0 mm 0 W/m2
22:54 46.8 °F /  8.2 °C 42.5 °F /  5.8 °C 30.52 in /  1033.4 hPa WNW 8.0 mph /  12.9 km/h 10.0 mph /  16.1 km/h 85 % 0.00 in /  0 mm 0 W/m2
22:59 46.8 °F /  8.2 °C 42.5 °F /  5.8 °C 30.52 in /  1033.4 hPa WNW 6.0 mph /  9.7 km/h 9.0 mph /  14.5 km/h 85 % 0.00 in /  0 mm 0 W/m2
23:04 46.8 °F /  8.2 °C 42.5 °F /  5.8 °C 30.52 in /  1033.4 hPa West 6.0 mph /  9.7 km/h 9.0 mph /  14.5 km/h 85 % 0.00 in /  0 mm 0 W/m2
23:09 46.8 °F /  8.2 °C 42.5 °F /  5.8 °C 30.52 in /  1033.4 hPa West 6.0 mph /  9.7 km/h 9.0 mph /  14.5 km/h 85 % 0.00 in /  0 mm 0 W/m2
23:14 46.8 °F /  8.2 °C 42.5 °F /  5.8 °C 30.52 in /  1033.4 hPa West 5.0 mph /  8 km/h 8.0 mph /  12.9 km/h 85 % 0.00 in /  0 mm 0 W/m2
23:19 46.8 °F /  8.2 °C 42.5 °F /  5.8 °C 30.52 in /  1033.4 hPa WNW 6.0 mph /  9.7 km/h 8.0 mph /  12.9 km/h 85 % 0.00 in /  0 mm 0 W/m2
23:24 46.8 °F /  8.2 °C 42.5 °F /  5.8 °C 30.52 in /  1033.4 hPa West 6.0 mph /  9.7 km/h 8.0 mph /  12.9 km/h 85 % 0.00 in /  0 mm 0 W/m2
23:29 46.8 °F /  8.2 °C 42.5 °F /  5.8 °C 30.52 in /  1033.4 hPa West 5.0 mph /  8 km/h 8.0 mph /  12.9 km/h 85 % 0.00 in /  0 mm 0 W/m2
23:34 46.8 °F /  8.2 °C 42.5 °F /  5.8 °C 30.52 in /  1033.4 hPa West 6.0 mph /  9.7 km/h 9.0 mph /  14.5 km/h 85 % 0.00 in /  0 mm 0 W/m2
23:39 46.8 °F /  8.2 °C 42.5 °F /  5.8 °C 30.52 in /  1033.4 hPa West 6.0 mph /  9.7 km/h 8.0 mph /  12.9 km/h 85 % 0.00 in /  0 mm 0 W/m2
23:44 46.8 °F /  8.2 °C 42.5 °F /  5.8 °C 30.52 in /  1033.4 hPa West 7.0 mph /  11.3 km/h 10.0 mph /  16.1 km/h 85 % 0.00 in /  0 mm 0 W/m2
23:49 46.8 °F /  8.2 °C 42.5 °F /  5.8 °C 30.52 in /  1033.4 hPa West 6.0 mph /  9.7 km/h 8.0 mph /  12.9 km/h 85 % 0.00 in /  0 mm 0 W/m2
23:54 46.8 °F /  8.2 °C 42.5 °F /  5.8 °C 30.52 in /  1033.4 hPa West 6.0 mph /  9.7 km/h 8.0 mph /  12.9 km/h 85 % 0.00 in /  0 mm 0 W/m2
Delerius-Weather
Compliments of Weather Underground - 2.25 mb

Data updates at regular intervals.